CheckWX is a tool to help pilots better visualize weather data.  It is not intended as a substitute for an official pre-flight weather briefing.

06:29:31 UTC

EPZG METAR
Zielona Góra-Babimost Airport
Babimost, Poland
Current

30 mins ago

EPZG 230600Z 08015KT 040V120 CAVOK 10/00 Q1015
Observed
Apr-23 @ 06:00 UTC
Wind
  • 080° at 15 KTS
Visibility
10,000+ meters
Flight Rules
VFR
Cloud Levels
  • Clear skies
Temperature
10°C / 50°F
Dewpoint
C / 32°F
Humidity
50%
Altimeter
29.97" Hg
Pressure
1014.92 hPa
Previous

60 mins ago

EPZG 230530Z 07015KT CAVOK 09/M00 Q1015
Observed
Apr-23 @ 05:30 UTC
Wind
  • 070° at 15 KTS
Visibility
10,000+ meters
Flight Rules
VFR
Cloud Levels
  • Clear skies
Temperature
C / 48°F
Dewpoint
C / 32°F
Humidity
54%
Altimeter
29.97" Hg
Pressure
1014.92 hPa
Previous

1 hour ago

EPZG 230500Z 08009KT 050V110 CAVOK 09/M00 Q1016
Observed
Apr-23 @ 05:00 UTC
Wind
  • 080° at 9 KTS
Visibility
10,000+ meters
Flight Rules
VFR
Cloud Levels
  • Clear skies
Temperature
C / 48°F
Dewpoint
C / 32°F
Humidity
54%
Altimeter
30" Hg
Pressure
1015.92 hPa